createdAt,value
2023-01-04T00:01:28.166Z,6.85
2023-01-04T00:03:56.576Z,7.95
2023-01-04T00:06:24.505Z,8.55
2023-01-04T00:08:52.381Z,8.82
2023-01-04T00:11:23.206Z,7.50
2023-01-04T00:13:52.637Z,7.75
2023-01-04T00:16:22.274Z,8.38
2023-01-04T00:18:51.307Z,8.70
2023-01-04T00:21:21.254Z,7.80
2023-01-04T00:23:51.427Z,7.78
2023-01-04T00:26:22.779Z,7.60
2023-01-04T00:28:55.158Z,7.63
2023-01-04T00:31:24.493Z,7.32
2023-01-04T00:33:54.363Z,5.70
2023-01-04T00:36:23.372Z,7.20
2023-01-04T00:39:07.114Z,6.82
2023-01-04T00:44:27.416Z,7.95
2023-01-04T00:46:55.793Z,5.95
2023-01-04T00:49:23.754Z,7.82
2023-01-04T00:51:51.880Z,6.65
2023-01-04T00:54:20.813Z,8.20
2023-01-04T00:56:50.351Z,7.05
2023-01-04T00:59:21.128Z,8.07
2023-01-04T01:01:49.292Z,7.10
2023-01-04T01:04:19.823Z,9.30
2023-01-04T01:06:48.621Z,8.00
2023-01-04T01:09:17.257Z,6.88
2023-01-04T01:11:45.376Z,7.10
2023-01-04T01:14:18.406Z,9.43
2023-01-04T01:17:02.467Z,7.82
2023-01-04T01:19:31.186Z,7.57
2023-01-04T01:21:59.628Z,6.80
2023-01-04T01:24:28.631Z,6.25
2023-01-04T01:26:56.827Z,6.00
2023-01-04T01:29:26.242Z,6.25
2023-01-04T01:31:54.766Z,7.68
2023-01-04T01:34:22.768Z,7.53
2023-01-04T01:36:50.852Z,6.53
2023-01-04T01:39:19.090Z,6.60
2023-01-04T01:41:47.114Z,6.07
2023-01-04T01:44:53.110Z,9.82
2023-01-04T01:47:24.925Z,6.32
2023-01-04T01:49:55.579Z,4.93
2023-01-04T01:52:28.661Z,6.43
2023-01-04T01:55:00.953Z,6.72
2023-01-04T01:57:32.839Z,7.00
2023-01-04T02:00:05.752Z,6.70
2023-01-04T02:02:35.356Z,6.85
2023-01-04T02:05:04.326Z,7.47
2023-01-04T02:07:32.940Z,6.05
2023-01-04T02:10:01.783Z,6.45
2023-01-04T02:12:29.627Z,7.53
2023-01-04T02:14:57.498Z,6.32
2023-01-04T02:17:40.527Z,5.53
2023-01-04T02:20:32.688Z,6.80
2023-01-04T02:23:32.990Z,6.50
2023-01-04T02:26:30.661Z,7.25
2023-01-04T02:29:27.494Z,7.35
2023-01-04T02:32:00.099Z,7.88
2023-01-04T02:34:37.441Z,8.60
2023-01-04T02:37:12.189Z,7.65
2023-01-04T02:39:50.599Z,6.53
2023-01-04T02:42:47.498Z,7.00
2023-01-04T02:45:17.611Z,7.72
2023-01-04T02:48:19.627Z,7.68
2023-01-04T02:50:53.691Z,8.10
2023-01-04T02:53:26.138Z,7.90
2023-01-04T02:56:05.947Z,8.05
2023-01-04T02:58:55.190Z,9.38
2023-01-04T03:01:52.998Z,8.32
2023-01-04T03:04:54.979Z,10.48
2023-01-04T03:07:30.037Z,7.47
2023-01-04T03:10:07.137Z,7.70
2023-01-04T03:12:42.271Z,9.10
2023-01-04T03:15:14.963Z,8.63
2023-01-04T03:17:50.675Z,7.45
2023-01-04T03:20:23.532Z,7.60
2023-01-04T03:23:12.631Z,8.20
2023-01-04T03:26:10.921Z,7.82
2023-01-04T03:28:57.788Z,7.82
2023-01-04T03:31:49.061Z,7.45
2023-01-04T03:34:34.771Z,9.05
2023-01-04T03:37:14.212Z,7.28
2023-01-04T03:40:09.815Z,7.63
2023-01-04T03:43:03.045Z,7.13
2023-01-04T03:45:51.785Z,8.27
2023-01-04T03:48:31.841Z,8.43
2023-01-04T03:51:18.884Z,9.25
2023-01-04T03:53:58.871Z,6.72
2023-01-04T03:56:30.240Z,8.23
2023-01-04T03:58:59.044Z,7.30
2023-01-04T04:01:28.268Z,8.38
2023-01-04T04:04:14.149Z,8.43
2023-01-04T04:06:59.519Z,8.07
2023-01-04T04:09:28.741Z,8.07
2023-01-04T04:11:56.764Z,7.90
2023-01-04T04:14:24.808Z,9.25
2023-01-04T04:16:53.314Z,7.40
2023-01-04T04:19:22.096Z,8.18
2023-01-04T04:21:50.049Z,7.95
2023-01-04T04:24:23.408Z,8.52
2023-01-04T04:26:54.360Z,8.68
2023-01-04T04:29:22.369Z,8.57
2023-01-04T04:31:50.667Z,8.02
2023-01-04T04:34:18.543Z,8.43
2023-01-04T04:36:46.475Z,8.10
2023-01-04T04:39:14.977Z,6.65
2023-01-04T04:41:42.047Z,6.95
2023-01-04T04:44:13.482Z,7.13
2023-01-04T04:46:42.124Z,6.72
2023-01-04T04:49:11.037Z,8.52
2023-01-04T04:51:39.273Z,5.45
2023-01-04T04:54:08.106Z,6.18
2023-01-04T04:56:37.024Z,6.25
2023-01-04T04:59:05.205Z,6.88
2023-01-04T05:01:35.164Z,6.90
2023-01-04T05:04:03.111Z,6.05
2023-01-04T05:06:30.970Z,6.45
2023-01-04T05:08:59.076Z,6.40
2023-01-04T05:11:40.975Z,6.70
2023-01-04T05:14:09.588Z,6.85
2023-01-04T05:16:38.879Z,6.03
2023-01-04T05:19:06.745Z,6.00
2023-01-04T05:21:34.626Z,5.53
2023-01-04T05:24:02.405Z,6.32
2023-01-04T05:26:30.225Z,6.40
2023-01-04T05:28:58.405Z,4.95
2023-01-04T05:31:26.005Z,6.40
2023-01-04T05:33:55.233Z,32.60
2023-01-04T05:36:23.094Z,5.47
2023-01-04T05:38:50.907Z,5.38
2023-01-04T05:41:36.526Z,4.63
2023-01-04T05:44:04.323Z,6.07
2023-01-04T05:46:32.236Z,5.82
2023-01-04T05:49:02.267Z,4.03
2023-01-04T05:51:30.066Z,5.95
2023-01-04T05:53:57.829Z,5.38
2023-01-04T05:56:25.661Z,6.00
2023-01-04T05:58:53.929Z,5.68
2023-01-04T06:01:21.771Z,4.65
2023-01-04T06:03:50.219Z,4.28
2023-01-04T06:06:19.462Z,4.15
2023-01-04T06:08:47.315Z,4.22
2023-01-04T06:11:15.539Z,4.70
2023-01-04T06:13:43.324Z,5.13
2023-01-04T06:16:11.144Z,4.32
2023-01-04T06:18:39.332Z,4.10
2023-01-04T06:21:07.128Z,4.47
2023-01-04T06:23:36.309Z,4.40
2023-01-04T06:26:04.498Z,4.05
2023-01-04T06:28:38.612Z,3.10
2023-01-04T06:31:10.158Z,3.30
2023-01-04T06:33:38.477Z,5.18
2023-01-04T06:36:07.489Z,4.70
2023-01-04T06:38:49.421Z,4.53
2023-01-04T06:41:17.523Z,4.50
2023-01-04T06:43:46.737Z,3.92
2023-01-04T06:46:14.680Z,4.72
2023-01-04T06:48:42.534Z,3.20
2023-01-04T06:51:10.565Z,4.00
2023-01-04T06:53:38.880Z,4.55
2023-01-04T06:56:09.253Z,4.30
2023-01-04T06:58:37.360Z,4.90
2023-01-04T07:01:06.182Z,2.78
2023-01-04T07:03:34.316Z,4.00
2023-01-04T07:06:06.077Z,5.10
2023-01-04T07:08:34.611Z,5.15
2023-01-04T07:11:02.919Z,4.85
2023-01-04T07:13:32.190Z,3.70
2023-01-04T07:16:00.562Z,4.85
2023-01-04T07:18:28.504Z,3.30
2023-01-04T07:20:56.848Z,4.43
2023-01-04T07:23:25.142Z,3.15
2023-01-04T07:25:52.951Z,4.05
2023-01-04T07:28:34.663Z,2.83
2023-01-04T07:31:07.516Z,2.88
2023-01-04T07:33:36.215Z,2.78
2023-01-04T07:36:06.114Z,3.42
2023-01-04T07:38:34.671Z,2.80
2023-01-04T07:41:03.057Z,3.40
2023-01-04T07:43:30.874Z,2.88
2023-01-04T07:45:58.785Z,1.75
2023-01-04T07:48:29.936Z,2.67
2023-01-04T07:50:57.810Z,2.70
2023-01-04T07:53:26.059Z,3.42
2023-01-04T07:55:57.636Z,3.85
2023-01-04T07:58:25.628Z,5.40
2023-01-04T08:00:53.584Z,3.22
2023-01-04T08:03:21.811Z,3.35
2023-01-04T08:05:50.954Z,4.30
2023-01-04T08:08:18.820Z,4.60
2023-01-04T08:10:47.130Z,3.50
2023-01-04T08:13:14.961Z,3.78
2023-01-04T08:15:42.933Z,4.07
2023-01-04T08:18:11.454Z,3.67
2023-01-04T08:20:39.293Z,3.53
2023-01-04T08:23:09.775Z,4.18
2023-01-04T08:25:38.079Z,5.95
2023-01-04T08:28:06.185Z,4.20
2023-01-04T08:30:34.057Z,6.75
2023-01-04T08:33:02.878Z,4.43
2023-01-04T08:35:30.753Z,3.50
2023-01-04T08:38:18.848Z,3.40
2023-01-04T08:40:59.820Z,5.10
2023-01-04T08:43:29.737Z,3.30
2023-01-04T08:45:58.052Z,4.18
2023-01-04T08:48:26.069Z,3.10
2023-01-04T08:50:54.055Z,3.20
2023-01-04T08:53:21.946Z,3.45
2023-01-04T08:55:52.419Z,3.65
2023-01-04T08:58:21.005Z,4.60
2023-01-04T09:00:49.271Z,3.63
2023-01-04T09:03:17.748Z,4.03
2023-01-04T09:05:46.422Z,4.10
2023-01-04T09:08:17.028Z,2.80
2023-01-04T09:10:44.843Z,3.33
2023-01-04T09:13:14.481Z,3.15
2023-01-04T09:15:42.362Z,2.80
2023-01-04T09:18:31.828Z,3.15
2023-01-04T09:21:01.505Z,2.85
2023-01-04T09:23:30.490Z,3.10
2023-01-04T09:25:58.477Z,2.72
2023-01-04T09:28:27.742Z,3.25
2023-01-04T09:30:55.659Z,3.33
2023-01-04T09:33:41.248Z,2.00
2023-01-04T09:36:15.041Z,3.05
2023-01-04T09:38:44.123Z,2.45
2023-01-04T09:41:25.672Z,2.60
2023-01-04T09:43:57.098Z,3.30
2023-01-04T09:46:31.916Z,2.88
2023-01-04T09:49:14.308Z,3.25
2023-01-04T09:51:47.124Z,3.92
2023-01-04T09:54:20.697Z,2.75
2023-01-04T09:56:54.396Z,3.20
2023-01-04T09:59:30.834Z,2.85
2023-01-04T10:02:03.648Z,3.25
2023-01-04T10:04:44.152Z,3.20
2023-01-04T10:07:23.236Z,2.50
2023-01-04T10:09:51.044Z,2.92
2023-01-04T10:12:33.369Z,4.05
2023-01-04T10:15:17.579Z,5.75
2023-01-04T10:21:35.092Z,3.30
2023-01-04T10:24:30.802Z,3.13
2023-01-04T10:27:03.906Z,3.90
2023-01-04T10:29:46.205Z,3.22
2023-01-04T10:32:20.628Z,3.13
2023-01-04T10:34:50.893Z,2.85
2023-01-04T10:37:21.760Z,3.38
2023-01-04T10:39:53.077Z,3.88
2023-01-04T10:42:31.931Z,2.75
2023-01-04T10:45:13.918Z,5.05
2023-01-04T10:47:51.822Z,3.15
2023-01-04T10:50:25.715Z,2.95
2023-01-04T10:53:00.924Z,2.90
2023-01-04T10:55:38.512Z,2.47
2023-01-04T10:58:13.478Z,2.78
2023-01-04T11:00:48.091Z,2.72
2023-01-04T11:03:22.233Z,2.80
2023-01-04T11:05:56.285Z,3.65
2023-01-04T11:08:29.824Z,2.80
2023-01-04T11:11:01.960Z,3.30
2023-01-04T11:13:30.027Z,2.78
2023-01-04T11:15:59.418Z,2.88
2023-01-04T11:18:30.170Z,3.60
2023-01-04T11:20:59.255Z,4.63
2023-01-04T11:23:27.147Z,2.88
2023-01-04T11:25:58.768Z,3.35
2023-01-04T11:28:40.120Z,2.33
2023-01-04T11:31:18.499Z,3.97
2023-01-04T11:34:00.342Z,4.28
2023-01-04T11:36:38.523Z,2.42
2023-01-04T11:39:09.042Z,3.65
2023-01-04T11:41:36.849Z,8.20
2023-01-04T11:44:06.924Z,3.85
2023-01-04T11:46:35.880Z,4.00
2023-01-04T11:49:09.928Z,3.47
2023-01-04T11:51:41.026Z,2.97
2023-01-04T11:54:20.815Z,3.13
2023-01-04T11:57:03.630Z,3.13
2023-01-04T11:59:33.982Z,3.92
2023-01-04T12:02:58.621Z,2.80
2023-01-04T12:05:24.218Z,6.85
2023-01-04T12:07:56.775Z,3.03
2023-01-04T12:10:27.591Z,3.55
2023-01-04T12:12:55.828Z,3.60
2023-01-04T12:15:33.414Z,3.38
2023-01-04T12:18:05.554Z,3.55
2023-01-04T12:20:35.370Z,2.80
2023-01-04T12:23:03.189Z,3.45
2023-01-04T12:25:36.995Z,1.95
2023-01-04T12:28:05.266Z,2.72
2023-01-04T12:30:40.219Z,3.58
2023-01-04T12:33:38.317Z,2.67
2023-01-04T12:36:09.095Z,3.13
2023-01-04T12:39:07.313Z,2.85
2023-01-04T12:42:13.172Z,2.47
2023-01-04T12:45:14.411Z,3.40
2023-01-04T12:48:02.063Z,2.38
2023-01-04T12:50:31.179Z,4.22
2023-01-04T12:53:29.803Z,3.78
2023-01-04T12:55:56.113Z,3.70
2023-01-04T12:59:27.428Z,4.75
2023-01-04T13:02:18.922Z,2.75
2023-01-04T13:04:47.403Z,3.53
2023-01-04T13:07:20.531Z,3.80
2023-01-04T13:09:54.694Z,6.28
2023-01-04T13:12:54.278Z,2.85
2023-01-04T13:15:29.413Z,5.30
2023-01-04T13:17:59.210Z,3.28
2023-01-04T13:20:31.084Z,1.90
2023-01-04T13:23:00.100Z,4.03
2023-01-04T13:25:29.321Z,3.30
2023-01-04T13:28:00.230Z,2.95
2023-01-04T13:30:36.953Z,3.53
2023-01-04T13:33:26.155Z,1.70
2023-01-04T13:36:11.630Z,3.38
2023-01-04T13:38:41.837Z,4.63
2023-01-04T13:41:23.281Z,3.53
2023-01-04T13:44:04.620Z,3.15
2023-01-04T13:46:32.512Z,3.45
2023-01-04T13:49:03.249Z,3.67
2023-01-04T13:51:37.868Z,3.28
2023-01-04T13:54:08.219Z,2.85
2023-01-04T13:56:37.920Z,1.67
2023-01-04T13:59:05.818Z,3.70
2023-01-04T14:01:36.618Z,3.42
2023-01-04T14:04:07.431Z,3.30
2023-01-04T14:06:41.057Z,2.83
2023-01-04T14:09:18.080Z,3.15
2023-01-04T14:12:06.348Z,2.25
2023-01-04T14:14:52.925Z,3.47
2023-01-04T14:17:25.358Z,4.03
2023-01-04T14:19:56.364Z,3.63
2023-01-04T14:22:48.970Z,3.70
2023-01-04T14:25:45.224Z,4.80
2023-01-04T14:28:49.516Z,2.75
2023-01-04T14:31:41.714Z,4.32
2023-01-04T14:34:15.570Z,2.40
2023-01-04T14:36:44.857Z,2.17
2023-01-04T14:39:33.848Z,4.25
2023-01-04T14:42:02.081Z,4.07
2023-01-04T14:44:35.803Z,3.10
2023-01-04T14:47:06.676Z,2.75
2023-01-04T14:49:35.062Z,3.38
2023-01-04T14:52:04.558Z,2.53
2023-01-04T14:54:35.499Z,2.28
2023-01-04T14:57:03.773Z,3.40
2023-01-04T14:59:32.950Z,1.85
2023-01-04T15:02:01.191Z,3.50
2023-01-04T15:04:29.194Z,2.40
2023-01-04T15:07:00.302Z,3.13
2023-01-04T15:09:29.936Z,2.83
2023-01-04T15:11:57.829Z,3.42
2023-01-04T15:14:26.192Z,4.32
2023-01-04T15:16:55.787Z,3.03
2023-01-04T15:19:23.645Z,4.18
2023-01-04T15:21:51.453Z,2.55
2023-01-04T15:24:19.666Z,2.58
2023-01-04T15:26:48.831Z,2.90
2023-01-04T15:29:16.658Z,2.38
2023-01-04T15:31:45.111Z,2.90
2023-01-04T15:34:17.310Z,2.60
2023-01-04T15:36:45.643Z,2.85
2023-01-04T15:39:15.107Z,3.20
2023-01-04T15:42:01.192Z,3.70
2023-01-04T15:44:29.686Z,3.72
2023-01-04T15:46:59.414Z,3.72
2023-01-04T15:49:30.920Z,5.63
2023-01-04T15:51:59.466Z,11.82
2023-01-04T15:54:27.785Z,14.05
2023-01-04T15:56:56.408Z,7.63
2023-01-04T15:59:24.455Z,7.03
2023-01-04T16:01:52.480Z,7.78
2023-01-04T16:04:20.758Z,10.13
2023-01-04T16:06:50.015Z,6.45
2023-01-04T16:09:17.893Z,6.22
2023-01-04T16:12:00.089Z,7.90
2023-01-04T16:14:27.921Z,5.38
2023-01-04T16:16:56.226Z,6.32
2023-01-04T16:19:24.381Z,3.13
2023-01-04T16:21:53.613Z,3.97
2023-01-04T16:25:08.291Z,3.45
2023-01-04T16:27:10.167Z,2.28
2023-01-04T16:29:37.993Z,3.17
2023-01-04T16:32:06.412Z,2.70
2023-01-04T16:34:34.706Z,2.35
2023-01-04T16:37:04.027Z,3.20
2023-01-04T16:40:05.328Z,3.60
2023-01-04T16:42:20.483Z,4.05
2023-01-04T16:44:48.723Z,2.85
2023-01-04T16:47:16.645Z,2.25
2023-01-04T16:49:44.596Z,3.20
2023-01-04T16:52:14.739Z,3.45
2023-01-04T16:54:42.582Z,2.90
2023-01-04T16:57:10.811Z,2.85
2023-01-04T16:59:38.644Z,2.72
2023-01-04T17:02:06.565Z,2.63
2023-01-04T17:04:35.074Z,2.75
2023-01-04T17:07:03.008Z,3.30
2023-01-04T17:09:32.211Z,1.95
2023-01-04T17:15:07.702Z,2.55
2023-01-04T17:17:38.609Z,4.65
2023-01-04T17:20:07.789Z,2.47
2023-01-04T17:22:35.761Z,2.33
2023-01-04T17:25:05.965Z,2.63
2023-01-04T17:27:35.526Z,2.28
2023-01-04T17:30:03.958Z,2.70
2023-01-04T17:32:32.210Z,2.20
2023-01-04T17:35:00.028Z,2.30
2023-01-04T17:37:28.059Z,2.83
2023-01-04T17:39:55.931Z,2.83
2023-01-04T17:42:25.113Z,4.20
2023-01-04T17:44:53.472Z,3.10
2023-01-04T17:47:21.741Z,2.60
2023-01-04T17:49:49.535Z,3.03
2023-01-04T17:52:24.474Z,2.83
2023-01-04T17:54:57.108Z,3.30
2023-01-04T17:57:26.489Z,2.15
2023-01-04T17:59:54.295Z,2.40
2023-01-04T18:02:22.147Z,2.38
2023-01-04T18:04:50.361Z,2.97
2023-01-04T18:07:19.951Z,2.83
2023-01-04T18:09:48.254Z,3.08
2023-01-04T18:12:16.964Z,2.55
2023-01-04T18:14:46.609Z,2.30
2023-01-04T18:17:15.002Z,2.15
2023-01-04T18:19:46.278Z,3.33
2023-01-04T18:22:14.869Z,2.22
2023-01-04T18:24:42.838Z,2.25
2023-01-04T18:27:22.628Z,2.45
2023-01-04T18:29:57.436Z,2.33
2023-01-04T18:32:27.321Z,2.53
2023-01-04T18:34:55.199Z,2.13
2023-01-04T18:37:23.601Z,2.92
2023-01-04T18:39:51.761Z,2.70
2023-01-04T18:42:19.702Z,1.98
2023-01-04T18:44:49.770Z,3.20
2023-01-04T18:47:21.605Z,3.20
2023-01-04T18:49:50.075Z,2.75
2023-01-04T18:52:20.141Z,16.70
2023-01-04T18:54:48.936Z,5.53
2023-01-04T18:57:17.001Z,30.33
2023-01-04T18:59:50.447Z,16.85
2023-01-04T19:02:22.570Z,78.30
2023-01-04T19:04:51.299Z,51.67
2023-01-04T19:07:19.538Z,133.93
2023-01-04T19:09:47.519Z,65.38
2023-01-04T19:12:17.187Z,225.82
2023-01-04T19:14:45.423Z,56.55
2023-01-04T19:17:13.760Z,99.32
2023-01-04T19:19:43.887Z,37.33
2023-01-04T19:22:11.770Z,84.45
2023-01-04T19:24:39.661Z,66.65
2023-01-04T19:27:09.159Z,35.70
2023-01-04T19:29:38.573Z,133.75
2023-01-04T19:32:06.590Z,106.22
2023-01-04T19:34:34.608Z,156.13
2023-01-04T19:37:04.229Z,187.68
2023-01-04T19:39:32.664Z,71.60
2023-01-04T19:42:01.175Z,35.05
2023-01-04T19:44:29.241Z,58.38
2023-01-04T19:46:57.141Z,74.72
2023-01-04T19:49:25.092Z,32.05
2023-01-04T19:51:54.857Z,14.23
2023-01-04T19:54:25.764Z,24.75
2023-01-04T19:56:54.855Z,30.63
2023-01-04T19:59:22.992Z,19.60
2023-01-04T20:01:51.250Z,4.07
2023-01-04T20:04:19.467Z,7.78
2023-01-04T20:06:47.420Z,4.03
2023-01-04T20:09:15.645Z,3.75
2023-01-04T20:11:45.190Z,3.28
2023-01-04T20:14:13.053Z,2.17
2023-01-04T20:16:41.142Z,1.55
2023-01-04T20:19:09.511Z,2.17
2023-01-04T20:21:37.596Z,1.98
2023-01-04T20:24:06.059Z,2.53
2023-01-04T20:26:34.709Z,2.00
2023-01-04T20:29:04.841Z,2.25
2023-01-04T20:31:38.118Z,2.10
2023-01-04T20:34:07.870Z,3.60
2023-01-04T20:36:36.741Z,3.30
2023-01-04T20:39:05.107Z,2.38
2023-01-04T20:41:33.293Z,2.60
2023-01-04T20:44:03.130Z,3.65
2023-01-04T20:46:33.575Z,2.50
2023-01-04T20:49:02.691Z,2.55
2023-01-04T20:51:32.167Z,9.75
2023-01-04T20:54:02.846Z,5.55
2023-01-04T20:56:37.483Z,10.50
2023-01-04T20:59:07.046Z,13.00
2023-01-04T21:01:35.180Z,4.72
2023-01-04T21:04:03.843Z,2.63
2023-01-04T21:06:35.169Z,2.50
2023-01-04T21:09:03.773Z,2.10
2023-01-04T21:11:31.879Z,1.67
2023-01-04T21:14:01.802Z,2.35
2023-01-04T21:16:31.506Z,1.77
2023-01-04T21:18:59.819Z,2.22
2023-01-04T21:21:27.705Z,1.50
2023-01-04T21:23:58.061Z,1.90
2023-01-04T21:26:26.349Z,1.55
2023-01-04T21:28:54.289Z,1.70
2023-01-04T21:31:25.303Z,2.00
2023-01-04T21:33:55.473Z,1.80
2023-01-04T21:36:25.943Z,1.70
2023-01-04T21:38:55.393Z,1.42
2023-01-04T21:41:25.409Z,2.15
2023-01-04T21:43:54.727Z,2.50
2023-01-04T21:46:23.388Z,1.63
2023-01-04T21:48:56.526Z,2.28
2023-01-04T21:51:26.257Z,1.52
2023-01-04T21:53:54.521Z,1.98
2023-01-04T21:56:25.161Z,1.95
2023-01-04T21:58:53.540Z,1.77
2023-01-04T22:01:23.787Z,2.15
2023-01-04T22:03:52.865Z,1.92
2023-01-04T22:06:22.966Z,2.53
2023-01-04T22:08:52.910Z,2.70
2023-01-04T22:11:21.956Z,1.92
2023-01-04T22:13:50.836Z,1.73
2023-01-04T22:16:19.539Z,2.25
2023-01-04T22:18:49.401Z,1.80
2023-01-04T22:21:20.796Z,2.03
2023-01-04T22:23:50.583Z,2.25
2023-01-04T22:26:18.622Z,0.98
2023-01-04T22:28:47.485Z,2.00
2023-01-04T22:31:17.672Z,1.92
2023-01-04T22:33:45.566Z,1.75
2023-01-04T22:36:21.733Z,2.13
2023-01-04T22:38:52.857Z,1.70
2023-01-04T22:41:22.928Z,2.45
2023-01-04T22:43:56.149Z,1.92
2023-01-04T22:46:25.031Z,1.80
2023-01-04T22:48:53.062Z,1.92
2023-01-04T22:51:22.523Z,2.75
2023-01-04T22:53:54.866Z,1.83
2023-01-04T22:56:23.639Z,2.10
2023-01-04T22:58:54.651Z,2.85
2023-01-04T23:01:24.885Z,2.40
2023-01-04T23:03:53.206Z,1.83
2023-01-04T23:06:22.235Z,2.35
2023-01-04T23:08:56.246Z,2.25
2023-01-04T23:11:25.498Z,2.90
2023-01-04T23:13:54.100Z,2.03
2023-01-04T23:16:27.844Z,1.88
2023-01-04T23:19:00.441Z,2.58
2023-01-04T23:21:28.604Z,2.40
2023-01-04T23:23:57.941Z,3.03
2023-01-04T23:26:27.965Z,1.75
2023-01-04T23:28:56.456Z,1.58
2023-01-04T23:31:26.961Z,1.75
2023-01-04T23:33:57.084Z,1.52
2023-01-04T23:36:27.468Z,2.40
2023-01-04T23:38:59.418Z,2.10
2023-01-04T23:41:42.448Z,1.95
2023-01-04T23:44:17.558Z,2.25
2023-01-04T23:46:45.979Z,2.53
2023-01-04T23:49:14.449Z,2.38
2023-01-04T23:51:44.327Z,2.50
2023-01-04T23:54:13.777Z,2.17
2023-01-04T23:56:42.472Z,2.35
2023-01-04T23:59:11.556Z,1.67
